This is the latest recevied weather packets stored in our database for station/object F1AGU-13. If no packets are shown the sender has not sent any weather packets the latest 10 day(s).
| Time | Temp. | Humidity | Pressure | Rain* | Wind** | Luminosity | Snow |
|---|---|---|---|---|---|---|---|
| 1787678416 | 22.78° C | 70% | 1016 hPa | 0 mm | - | - | - |
| 1787677816 | 22.78° C | 71% | 1015.9 hPa | 0 mm | - | - | - |
| 1787677216 | 23.33° C | 69% | 1016.2 hPa | 0 mm | - | - | - |
| 1787676616 | 23.33° C | 66% | 1016.1 hPa | 0 mm | - | - | - |
| 1787676016 | 23.89° C | 61% | 1016 hPa | 0 mm | - | - | - |
| 1787675416 | 24.44° C | 55% | 1016.2 hPa | 0 mm | - | - | - |
| 1787674816 | 25° C | 55% | 1016.3 hPa | 0 mm | - | - | - |
| 1787674216 | 25° C | 53% | 1016.4 hPa | 0 mm | - | - | - |
| 1787673616 | 24.44° C | 56% | 1016.3 hPa | 0 mm | - | - | - |
| 1787673016 | 25° C | 53% | 1016.3 hPa | 0 mm | - | - | - |
| 1787672416 | 25° C | 53% | 1016.2 hPa | 0 mm | - | - | - |
| 1787671816 | 24.44° C | 56% | 1016.3 hPa | 0 mm | - | - | - |
| 1787671216 | 24.44° C | 52% | 1016.1 hPa | 0 mm | - | - | - |
| 1787670616 | 23.89° C | 56% | 1016 hPa | 0 mm | - | - | - |
| 1787670016 | 23.89° C | 54% | 1016.2 hPa | 0 mm | - | - | - |
| 1787669416 | 25° C | 51% | 1016.1 hPa | 0 mm | - | - | - |
| 1787668816 | 25° C | 52% | 1016.4 hPa | 0 mm | - | - | - |
| 1787668216 | 25° C | 51% | 1016.3 hPa | 0 mm | - | - | - |
| 1787667616 | 25° C | 51% | 1016.3 hPa | 0 mm | - | - | - |
| 1787667016 | 25° C | 54% | 1016.3 hPa | 0 mm | - | - | - |
| 1787666416 | 25° C | 52% | 1016.3 hPa | 0 mm | - | - | - |
| 1787665816 | 25° C | 52% | 1016.4 hPa | 0 mm | - | - | - |
| 1787665216 | 24.44° C | 54% | 1016.3 hPa | 0 mm | - | - | - |
| 1787664616 | 25° C | 51% | 1016.1 hPa | 0 mm | - | - | - |
| 1787664016 | 24.44° C | 50% | 1016 hPa | 0 mm | - | - | - |
* Rain latest hour (hover to see other rain measurements)
** Current wind speed in m/s (hover to see current wind gust speed)